sensor_id;sensor_type;location;lat;lon;timestamp;pressure;altitude;pressure_sealevel;temperature;humidity
74045;BME280;62389;51.412;5.436;2023-04-03T00:01:53;102847.34;;;1.53;87.88
74045;BME280;62389;51.412;5.436;2023-04-03T00:04:18;102852.50;;;1.53;88.32
74045;BME280;62389;51.412;5.436;2023-04-03T00:06:44;102853.34;;;1.52;87.46
74045;BME280;62389;51.412;5.436;2023-04-03T00:09:09;102855.94;;;1.52;87.46
74045;BME280;62389;51.412;5.436;2023-04-03T00:11:34;102855.06;;;1.51;87.20
74045;BME280;62389;51.412;5.436;2023-04-03T00:14:00;102851.56;;;1.49;87.49
74045;BME280;62389;51.412;5.436;2023-04-03T00:16:25;102850.69;;;1.49;87.40
74045;BME280;62389;51.412;5.436;2023-04-03T00:18:50;102853.22;;;1.47;86.69
74045;BME280;62389;51.412;5.436;2023-04-03T00:21:16;102847.97;;;1.44;87.09
74045;BME280;62389;51.412;5.436;2023-04-03T00:23:41;102857.44;;;1.44;87.23
74045;BME280;62389;51.412;5.436;2023-04-03T00:26:07;102864.19;;;1.40;87.66
74045;BME280;62389;51.412;5.436;2023-04-03T00:28:32;102858.16;;;1.38;87.77
74045;BME280;62389;51.412;5.436;2023-04-03T00:30:58;102867.56;;;1.36;88.01
74045;BME280;62389;51.412;5.436;2023-04-03T00:33:23;102864.97;;;1.36;88.22
74045;BME280;62389;51.412;5.436;2023-04-03T00:35:50;102859.81;;;1.36;87.83
74045;BME280;62389;51.412;5.436;2023-04-03T00:38:15;102859.75;;;1.35;87.66
74045;BME280;62389;51.412;5.436;2023-04-03T00:40:43;102858.88;;;1.34;88.15
74045;BME280;62389;51.412;5.436;2023-04-03T00:43:12;102859.72;;;1.33;88.51
74045;BME280;62389;51.412;5.436;2023-04-03T00:45:40;102875.19;;;1.33;88.42
74045;BME280;62389;51.412;5.436;2023-04-03T00:48:08;102872.59;;;1.32;88.54
74045;BME280;62389;51.412;5.436;2023-04-03T00:50:37;102873.38;;;1.29;87.45
74045;BME280;62389;51.412;5.436;2023-04-03T00:53:04;102863.78;;;1.25;87.77
74045;BME280;62389;51.412;5.436;2023-04-03T00:55:32;102861.16;;;1.22;87.79
74045;BME280;62389;51.412;5.436;2023-04-03T00:57:59;102872.34;;;1.22;87.82
74045;BME280;62389;51.412;5.436;2023-04-03T01:00:26;102873.09;;;1.20;87.54
74045;BME280;62389;51.412;5.436;2023-04-03T01:02:52;102870.41;;;1.15;87.39
74045;BME280;62389;51.412;5.436;2023-04-03T01:05:19;102873.78;;;1.13;88.11
74045;BME280;62389;51.412;5.436;2023-04-03T01:07:46;102880.63;;;1.11;88.50
74045;BME280;62389;51.412;5.436;2023-04-03T01:10:14;102877.13;;;1.10;88.90
74045;BME280;62389;51.412;5.436;2023-04-03T01:12:42;102878.84;;;1.10;88.87
74045;BME280;62389;51.412;5.436;2023-04-03T01:15:18;102884.75;;;1.06;89.02
74045;BME280;62389;51.412;5.436;2023-04-03T01:17:52;102889.91;;;1.06;88.55
74045;BME280;62389;51.412;5.436;2023-04-03T01:25:53;102885.56;;;1.04;88.49
74045;BME280;62389;51.412;5.436;2023-04-03T01:28:24;102881.19;;;1.00;88.42
74045;BME280;62389;51.412;5.436;2023-04-03T01:33:20;102884.50;;;0.96;88.42
74045;BME280;62389;51.412;5.436;2023-04-03T01:35:46;102879.25;;;0.93;88.17
74045;BME280;62389;51.412;5.436;2023-04-03T01:38:11;102886.06;;;0.91;88.24
74045;BME280;62389;51.412;5.436;2023-04-03T01:40:37;102880.81;;;0.88;88.06
74045;BME280;62389;51.412;5.436;2023-04-03T01:43:03;102879.03;;;0.86;88.21
74045;BME280;62389;51.412;5.436;2023-04-03T01:45:28;102889.28;;;0.84;88.59
74045;BME280;62389;51.412;5.436;2023-04-03T01:47:54;102882.34;;;0.82;88.53
74045;BME280;62389;51.412;5.436;2023-04-03T01:50:19;102882.25;;;0.78;88.75
74045;BME280;62389;51.412;5.436;2023-04-03T01:52:45;102880.53;;;0.79;88.80
74045;BME280;62389;51.412;5.436;2023-04-03T01:55:10;102887.41;;;0.78;88.75
74045;BME280;62389;51.412;5.436;2023-04-03T01:57:35;102882.22;;;0.77;89.08
74045;BME280;62389;51.412;5.436;2023-04-03T02:00:04;102875.25;;;0.74;88.65
74045;BME280;62389;51.412;5.436;2023-04-03T02:02:29;102885.53;;;0.73;88.81
74045;BME280;62389;51.412;5.436;2023-04-03T02:04:55;102882.84;;;0.70;88.66
74045;BME280;62389;51.412;5.436;2023-04-03T02:07:20;102888.81;;;0.69;88.89
74045;BME280;62389;51.412;5.436;2023-04-03T02:09:48;102888.75;;;0.66;88.88
74045;BME280;62389;51.412;5.436;2023-04-03T02:12:13;102882.75;;;0.65;89.54
74045;BME280;62389;51.412;5.436;2023-04-03T02:14:39;102886.13;;;0.64;89.32
74045;BME280;62389;51.412;5.436;2023-04-03T02:17:04;102891.22;;;0.63;89.35
74045;BME280;62389;51.412;5.436;2023-04-03T02:19:36;102890.31;;;0.61;89.40
74045;BME280;62389;51.412;5.436;2023-04-03T02:22:05;102882.53;;;0.59;89.88
74045;BME280;62389;51.412;5.436;2023-04-03T02:24:31;102891.97;;;0.59;89.74
74045;BME280;62389;51.412;5.436;2023-04-03T02:26:58;102894.53;;;0.59;89.94
74045;BME280;62389;51.412;5.436;2023-04-03T02:29:23;102891.13;;;0.60;89.65
74045;BME280;62389;51.412;5.436;2023-04-03T02:31:49;102890.25;;;0.59;90.04
74045;BME280;62389;51.412;5.436;2023-04-03T02:34:15;102902.38;;;0.62;90.50
74045;BME280;62389;51.412;5.436;2023-04-03T02:36:41;102889.56;;;0.65;90.66
74045;BME280;62389;51.412;5.436;2023-04-03T02:39:06;102895.69;;;0.68;90.70
74045;BME280;62389;51.412;5.436;2023-04-03T02:41:31;102894.97;;;0.72;90.57
74045;BME280;62389;51.412;5.436;2023-04-03T02:44:08;102898.50;;;0.76;90.37
74045;BME280;62389;51.412;5.436;2023-04-03T02:46:34;102901.16;;;0.79;90.19
74045;BME280;62389;51.412;5.436;2023-04-03T02:48:59;102896.97;;;0.83;90.18
74045;BME280;62389;51.412;5.436;2023-04-03T02:51:25;102899.69;;;0.87;90.06
74045;BME280;62389;51.412;5.436;2023-04-03T02:53:50;102905.84;;;0.92;89.87
74045;BME280;62389;51.412;5.436;2023-04-03T02:56:16;102915.41;;;0.96;89.62
74045;BME280;62389;51.412;5.436;2023-04-03T02:58:43;102906.94;;;1.00;89.83
74045;BME280;62389;51.412;5.436;2023-04-03T03:01:09;102911.34;;;1.04;89.35
74045;BME280;62389;51.412;5.436;2023-04-03T03:03:35;102915.75;;;1.09;89.53
74045;BME280;62389;51.412;5.436;2023-04-03T03:06:05;102914.13;;;1.11;89.33
74045;BME280;62389;51.412;5.436;2023-04-03T03:08:31;102901.25;;;1.12;89.06
74045;BME280;62389;51.412;5.436;2023-04-03T03:10:57;102901.31;;;1.15;88.86
74045;BME280;62389;51.412;5.436;2023-04-03T03:13:22;102906.47;;;1.15;88.85
74045;BME280;62389;51.412;5.436;2023-04-03T03:15:48;102909.13;;;1.17;88.77
74045;BME280;62389;51.412;5.436;2023-04-03T03:18:13;102898.81;;;1.17;88.72
74045;BME280;62389;51.412;5.436;2023-04-03T03:20:39;102901.44;;;1.18;88.75
74045;BME280;62389;51.412;5.436;2023-04-03T03:23:04;102903.13;;;1.18;88.62
74045;BME280;62389;51.412;5.436;2023-04-03T03:25:30;102903.13;;;1.18;88.96
74045;BME280;62389;51.412;5.436;2023-04-03T03:27:55;102899.69;;;1.17;88.59
74045;BME280;62389;51.412;5.436;2023-04-03T03:30:20;102895.38;;;1.16;88.45
74045;BME280;62389;51.412;5.436;2023-04-03T03:32:46;102907.38;;;1.16;88.26
74045;BME280;62389;51.412;5.436;2023-04-03T03:35:11;102909.97;;;1.16;88.60
74045;BME280;62389;51.412;5.436;2023-04-03T03:37:37;102910.75;;;1.15;88.40
74045;BME280;62389;51.412;5.436;2023-04-03T03:40:03;102914.19;;;1.14;88.50
74045;BME280;62389;51.412;5.436;2023-04-03T03:42:28;102915.91;;;1.15;88.47
74045;BME280;62389;51.412;5.436;2023-04-03T03:44:53;102915.03;;;1.13;88.19
74045;BME280;62389;51.412;5.436;2023-04-03T03:47:19;102915.03;;;1.13;88.11
74045;BME280;62389;51.412;5.436;2023-04-03T03:49:45;102921.84;;;1.11;87.99
74045;BME280;62389;51.412;5.436;2023-04-03T03:52:10;102919.28;;;1.11;88.26
74045;BME280;62389;51.412;5.436;2023-04-03T03:54:36;102930.34;;;1.08;88.16
74045;BME280;62389;51.412;5.436;2023-04-03T03:57:02;102929.47;;;1.08;87.97
74045;BME280;62389;51.412;5.436;2023-04-03T03:59:28;102928.59;;;1.07;87.66
74045;BME280;62389;51.412;5.436;2023-04-03T04:01:53;102932.88;;;1.07;87.99
74045;BME280;62389;51.412;5.436;2023-04-03T04:04:19;102932.03;;;1.06;88.05
74045;BME280;62389;51.412;5.436;2023-04-03T04:06:45;102924.22;;;1.04;88.38
74045;BME280;62389;51.412;5.436;2023-04-03T04:09:10;102929.38;;;1.04;87.98
74045;BME280;62389;51.412;5.436;2023-04-03T04:11:35;102927.63;;;1.03;87.88
74045;BME280;62389;51.412;5.436;2023-04-03T04:14:01;102927.59;;;1.02;88.13
74045;BME280;62389;51.412;5.436;2023-04-03T04:16:26;102927.56;;;1.00;87.78
74045;BME280;62389;51.412;5.436;2023-04-03T04:18:52;102924.06;;;0.98;88.10
74045;BME280;62389;51.412;5.436;2023-04-03T04:21:17;102926.59;;;0.97;87.79
74045;BME280;62389;51.412;5.436;2023-04-03T04:23:42;102925.72;;;0.96;88.03
74045;BME280;62389;51.412;5.436;2023-04-03T04:26:08;102923.06;;;0.95;87.62
74045;BME280;62389;51.412;5.436;2023-04-03T04:28:33;102926.50;;;0.94;87.66
74045;BME280;62389;51.412;5.436;2023-04-03T04:30:59;102924.75;;;0.93;87.69
74045;BME280;62389;51.412;5.436;2023-04-03T04:33:24;102925.59;;;0.92;87.38
74045;BME280;62389;51.412;5.436;2023-04-03T04:35:50;102932.44;;;0.91;87.87
74045;BME280;62389;51.412;5.436;2023-04-03T04:38:16;102931.50;;;0.89;87.18
74045;BME280;62389;51.412;5.436;2023-04-03T04:40:42;102928.94;;;0.89;87.32
74045;BME280;62389;51.412;5.436;2023-04-03T04:43:07;102926.34;;;0.89;87.47
74045;BME280;62389;51.412;5.436;2023-04-03T04:45:33;102937.50;;;0.88;87.31
74045;BME280;62389;51.412;5.436;2023-04-03T04:47:58;102940.03;;;0.87;86.76
74045;BME280;62389;51.412;5.436;2023-04-03T04:50:23;102944.31;;;0.86;87.11
74045;BME280;62389;51.412;5.436;2023-04-03T04:52:49;102946.81;;;0.85;87.00
74045;BME280;62389;51.412;5.436;2023-04-03T04:55:14;102951.97;;;0.85;86.94
74045;BME280;62389;51.412;5.436;2023-04-03T04:57:40;102948.53;;;0.84;86.91
74045;BME280;62389;51.412;5.436;2023-04-03T05:00:07;102946.78;;;0.83;86.81
74045;BME280;62389;51.412;5.436;2023-04-03T05:02:33;102950.34;;;0.87;86.69
74045;BME280;62389;51.412;5.436;2023-04-03T05:04:58;102951.09;;;0.84;86.80
74045;BME280;62389;51.412;5.436;2023-04-03T05:07:24;102952.78;;;0.82;86.78
74045;BME280;62389;51.412;5.436;2023-04-03T05:09:49;102956.19;;;0.81;86.75
74045;BME280;62389;51.412;5.436;2023-04-03T05:12:14;102957.00;;;0.80;86.80
74045;BME280;62389;51.412;5.436;2023-04-03T05:14:40;102946.69;;;0.80;86.39
74045;BME280;62389;51.412;5.436;2023-04-03T05:17:05;102957.81;;;0.79;86.58
74045;BME280;62389;51.412;5.436;2023-04-03T05:19:31;102962.97;;;0.79;86.57
74045;BME280;62389;51.412;5.436;2023-04-03T05:21:56;102961.28;;;0.80;86.64
74045;BME280;62389;51.412;5.436;2023-04-03T05:24:21;102971.53;;;0.78;87.05
74045;BME280;62389;51.412;5.436;2023-04-03T05:26:47;102966.38;;;0.78;86.78
74045;BME280;62389;51.412;5.436;2023-04-03T05:29:12;102964.66;;;0.77;86.81
74045;BME280;62389;51.412;5.436;2023-04-03T05:31:38;102969.78;;;0.77;86.66
74045;BME280;62389;51.412;5.436;2023-04-03T05:34:03;102980.09;;;0.77;86.68
74045;BME280;62389;51.412;5.436;2023-04-03T05:36:28;102979.25;;;0.78;86.66
74045;BME280;62389;51.412;5.436;2023-04-03T05:38:54;102979.31;;;0.80;86.36
74045;BME280;62389;51.412;5.436;2023-04-03T05:41:21;102979.31;;;0.80;86.73
74045;BME280;62389;51.412;5.436;2023-04-03T05:43:47;102978.44;;;0.79;86.40
74045;BME280;62389;51.412;5.436;2023-04-03T05:46:15;102976.78;;;0.81;86.50
74045;BME280;62389;51.412;5.436;2023-04-03T05:48:41;102989.69;;;0.81;86.74
74045;BME280;62389;51.412;5.436;2023-04-03T05:51:06;102983.69;;;0.82;86.26
74045;BME280;62389;51.412;5.436;2023-04-03T05:53:35;102983.69;;;0.82;86.38
74045;BME280;62389;51.412;5.436;2023-04-03T05:56:02;102982.03;;;0.84;86.37
74045;BME280;62389;51.412;5.436;2023-04-03T05:58:28;102984.66;;;0.86;86.38
74045;BME280;62389;51.412;5.436;2023-04-03T06:00:53;102976.13;;;0.88;86.36
74045;BME280;62389;51.412;5.436;2023-04-03T06:03:19;102981.41;;;0.91;86.19
74045;BME280;62389;51.412;5.436;2023-04-03T06:05:44;102979.00;;;0.97;86.27
74045;BME280;62389;51.412;5.436;2023-04-03T06:08:11;102985.19;;;1.04;86.15
74045;BME280;62389;51.412;5.436;2023-04-03T06:10:37;102988.19;;;1.18;86.00
74045;BME280;62389;51.412;5.436;2023-04-03T06:13:03;102983.81;;;1.45;85.68
74045;BME280;62389;51.412;5.436;2023-04-03T06:15:28;102985.63;;;1.79;85.08
74045;BME280;62389;51.412;5.436;2023-04-03T06:17:54;102983.72;;;2.05;84.05
74045;BME280;62389;51.412;5.436;2023-04-03T06:20:20;102984.94;;;2.18;82.54
74045;BME280;62389;51.412;5.436;2023-04-03T06:22:45;102987.63;;;2.23;82.74
74045;BME280;62389;51.412;5.436;2023-04-03T06:25:11;102989.44;;;2.27;82.34
74045;BME280;62389;51.412;5.436;2023-04-03T06:27:37;102990.56;;;2.37;81.47
74045;BME280;62389;51.412;5.436;2023-04-03T06:30:03;102997.63;;;2.45;81.09
74045;BME280;62389;51.412;5.436;2023-04-03T06:32:28;102996.81;;;2.46;80.15
74045;BME280;62389;51.412;5.436;2023-04-03T06:34:53;102999.44;;;2.48;80.83
74045;BME280;62389;51.412;5.436;2023-04-03T06:37:21;103004.97;;;2.63;81.75
74045;BME280;62389;51.412;5.436;2023-04-03T06:39:47;103003.00;;;2.91;80.76
74045;BME280;62389;51.412;5.436;2023-04-03T06:42:12;103005.06;;;3.46;79.74
74045;BME280;62389;51.412;5.436;2023-04-03T06:44:38;103006.44;;;4.20;78.37
74045;BME280;62389;51.412;5.436;2023-04-03T06:47:03;102997.84;;;4.74;74.22
74045;BME280;62389;51.412;5.436;2023-04-03T06:49:29;102996.63;;;5.11;73.56
74045;BME280;62389;51.412;5.436;2023-04-03T06:51:55;103002.19;;;5.41;72.38
74045;BME280;62389;51.412;5.436;2023-04-03T06:54:21;103004.00;;;5.47;70.52
74045;BME280;62389;51.412;5.436;2023-04-03T06:56:46;103010.91;;;5.43;70.04
74045;BME280;62389;51.412;5.436;2023-04-03T06:59:12;103006.69;;;5.55;71.77
74045;BME280;62389;51.412;5.436;2023-04-03T07:01:40;103008.91;;;5.92;69.98
74045;BME280;62389;51.412;5.436;2023-04-03T07:04:07;103006.50;;;6.15;68.74
74045;BME280;62389;51.412;5.436;2023-04-03T07:06:33;103005.72;;;6.27;67.89
74045;BME280;62389;51.412;5.436;2023-04-03T07:08:59;103009.09;;;6.15;68.07
74045;BME280;62389;51.412;5.436;2023-04-03T07:11:24;103013.28;;;6.00;67.45
74045;BME280;62389;51.412;5.436;2023-04-03T07:13:51;103019.22;;;5.91;68.13
74045;BME280;62389;51.412;5.436;2023-04-03T07:16:16;103029.69;;;5.92;67.82
74045;BME280;62389;51.412;5.436;2023-04-03T07:18:42;103024.25;;;5.77;67.09
74045;BME280;62389;51.412;5.436;2023-04-03T07:21:07;103021.53;;;5.65;67.76
74045;BME280;62389;51.412;5.436;2023-04-03T07:23:33;103014.75;;;5.78;67.50
74045;BME280;62389;51.412;5.436;2023-04-03T07:25:58;103018.34;;;5.87;67.05
74045;BME280;62389;51.412;5.436;2023-04-03T07:28:24;103023.38;;;5.75;68.83
74045;BME280;62389;51.412;5.436;2023-04-03T07:30:59;103022.56;;;5.81;68.74
74045;BME280;62389;51.412;5.436;2023-04-03T07:33:25;103031.63;;;6.13;66.01
74045;BME280;62389;51.412;5.436;2023-04-03T07:35:51;103020.59;;;6.39;65.33
74045;BME280;62389;51.412;5.436;2023-04-03T07:38:17;103025.44;;;7.13;64.83
74045;BME280;62389;51.412;5.436;2023-04-03T07:40:47;103023.16;;;8.17;62.54
74045;BME280;62389;51.412;5.436;2023-04-03T07:43:13;103019.66;;;9.19;59.54
74045;BME280;62389;51.412;5.436;2023-04-03T07:45:38;103025.31;;;10.05;56.25
74045;BME280;62389;51.412;5.436;2023-04-03T07:48:04;103023.38;;;10.36;55.12
74045;BME280;62389;51.412;5.436;2023-04-03T07:50:29;103030.34;;;10.36;53.42
74045;BME280;62389;51.412;5.436;2023-04-03T07:52:56;103028.63;;;10.33;53.66
74045;BME280;62389;51.412;5.436;2023-04-03T07:55:23;103019.09;;;10.22;53.38
74045;BME280;62389;51.412;5.436;2023-04-03T07:57:48;103023.44;;;10.30;53.20
74045;BME280;62389;51.412;5.436;2023-04-03T08:00:14;103025.47;;;10.95;51.67
74045;BME280;62389;51.412;5.436;2023-04-03T08:02:39;103030.97;;;11.47;52.50
74045;BME280;62389;51.412;5.436;2023-04-03T08:05:05;103030.91;;;12.69;49.60
74045;BME280;62389;51.412;5.436;2023-04-03T08:07:30;103023.31;;;14.24;45.05
74045;BME280;62389;51.412;5.436;2023-04-03T08:09:56;103017.72;;;15.67;43.62
74045;BME280;62389;51.412;5.436;2023-04-03T08:12:22;103021.13;;;16.78;40.35
74045;BME280;62389;51.412;5.436;2023-04-03T08:14:47;103015.44;;;17.84;38.80
74045;BME280;62389;51.412;5.436;2023-04-03T08:17:12;103024.72;;;19.38;35.18
74045;BME280;62389;51.412;5.436;2023-04-03T08:19:38;103014.94;;;20.66;33.50
74045;BME280;62389;51.412;5.436;2023-04-03T08:22:04;103011.38;;;21.81;31.13
74045;BME280;62389;51.412;5.436;2023-04-03T08:24:31;103023.03;;;22.70;29.32
74045;BME280;62389;51.412;5.436;2023-04-03T08:26:56;103023.13;;;23.69;28.66
74045;BME280;62389;51.412;5.436;2023-04-03T08:29:22;103023.31;;;24.47;27.11
74045;BME280;62389;51.412;5.436;2023-04-03T08:31:48;103018.50;;;25.28;26.49
74045;BME280;62389;51.412;5.436;2023-04-03T08:34:15;103027.44;;;26.14;22.88
74045;BME280;62389;51.412;5.436;2023-04-03T08:36:41;103020.84;;;26.42;22.87
74045;BME280;62389;51.412;5.436;2023-04-03T08:39:06;103026.91;;;26.79;21.69
74045;BME280;62389;51.412;5.436;2023-04-03T08:41:40;103032.94;;;27.27;23.59
74045;BME280;62389;51.412;5.436;2023-04-03T08:44:29;103036.81;;;27.57;26.04
74045;BME280;62389;51.412;5.436;2023-04-03T08:47:11;103035.75;;;28.24;24.76
74045;BME280;62389;51.412;5.436;2023-04-03T08:49:57;103046.69;;;28.64;25.57
74045;BME280;62389;51.412;5.436;2023-04-03T08:52:41;103042.81;;;28.78;23.02
74045;BME280;62389;51.412;5.436;2023-04-03T08:57:51;103040.75;;;29.62;18.22
74045;BME280;62389;51.412;5.436;2023-04-03T09:00:23;103029.16;;;30.10;17.90
74045;BME280;62389;51.412;5.436;2023-04-03T09:02:51;103027.16;;;30.31;16.47
74045;BME280;62389;51.412;5.436;2023-04-03T09:08:04;103028.84;;;30.42;17.25
74045;BME280;62389;51.412;5.436;2023-04-03T09:10:34;103033.94;;;30.64;16.29
74045;BME280;62389;51.412;5.436;2023-04-03T09:13:06;103035.19;;;31.17;15.68
74045;BME280;62389;51.412;5.436;2023-04-03T09:15:37;103038.19;;;31.69;14.99
74045;BME280;62389;51.412;5.436;2023-04-03T09:18:13;103019.50;;;32.11;17.49
74045;BME280;62389;51.412;5.436;2023-04-03T09:20:55;103038.84;;;32.60;21.67
74045;BME280;62389;51.412;5.436;2023-04-03T09:26:00;103025.66;;;32.21;13.16
74045;BME280;62389;51.412;5.436;2023-04-03T09:28:27;103025.69;;;31.68;13.47
74045;BME280;62389;51.412;5.436;2023-04-03T09:30:54;103028.03;;;31.26;12.91
74045;BME280;62389;51.412;5.436;2023-04-03T09:33:20;103035.13;;;30.99;11.93
74045;BME280;62389;51.412;5.436;2023-04-03T09:35:47;103032.53;;;30.70;12.10
74045;BME280;62389;51.412;5.436;2023-04-03T09:40:41;103029.06;;;28.18;14.26
74045;BME280;62389;51.412;5.436;2023-04-03T09:45:42;103037.59;;;23.79;16.94
74045;BME280;62389;51.412;5.436;2023-04-03T09:50:53;103034.34;;;21.19;23.26
74045;BME280;62389;51.412;5.436;2023-04-03T09:55:54;103027.47;;;19.17;21.51
74045;BME280;62389;51.412;5.436;2023-04-03T10:00:56;103026.19;;;17.79;23.41
74045;BME280;62389;51.412;5.436;2023-04-03T10:03:35;103029.81;;;17.30;27.15
74045;BME280;62389;51.412;5.436;2023-04-03T10:06:02;103025.66;;;16.74;22.44
74045;BME280;62389;51.412;5.436;2023-04-03T10:11:15;103020.78;;;15.81;27.42
74045;BME280;62389;51.412;5.436;2023-04-03T10:13:52;103009.78;;;15.37;26.94
74045;BME280;62389;51.412;5.436;2023-04-03T10:16:38;103014.78;;;15.15;28.13
74045;BME280;62389;51.412;5.436;2023-04-03T10:19:29;103017.13;;;14.95;28.12
74045;BME280;62389;51.412;5.436;2023-04-03T10:22:02;103027.38;;;14.73;25.28
74045;BME280;62389;51.412;5.436;2023-04-03T10:27:40;103017.13;;;14.25;27.37
74045;BME280;62389;51.412;5.436;2023-04-03T10:30:29;103010.31;;;14.18;29.14
74045;BME280;62389;51.412;5.436;2023-04-03T10:33:08;103003.41;;;14.12;28.66
74045;BME280;62389;51.412;5.436;2023-04-03T10:35:44;103006.88;;;14.14;28.63
74045;BME280;62389;51.412;5.436;2023-04-03T10:46:53;102999.13;;;13.29;27.36
74045;BME280;62389;51.412;5.436;2023-04-03T10:52:24;102990.47;;;13.24;30.48
74045;BME280;62389;51.412;5.436;2023-04-03T10:55:08;102989.47;;;13.31;29.64
74045;BME280;62389;51.412;5.436;2023-04-03T10:57:40;102990.34;;;13.30;28.07
74045;BME280;62389;51.412;5.436;2023-04-03T11:00:15;102984.28;;;13.68;30.61
74045;BME280;62389;51.412;5.436;2023-04-03T11:02:57;102983.59;;;13.59;27.59
74045;BME280;62389;51.412;5.436;2023-04-03T11:05:49;102988.63;;;13.29;29.73
74045;BME280;62389;51.412;5.436;2023-04-03T11:10:46;102968.78;;;13.13;28.86
74045;BME280;62389;51.412;5.436;2023-04-03T11:15:38;102977.81;;;13.00;29.41
74045;BME280;62389;51.412;5.436;2023-04-03T11:18:15;102969.91;;;13.00;30.22
74045;BME280;62389;51.412;5.436;2023-04-03T11:20:47;102971.59;;;13.04;32.57
74045;BME280;62389;51.412;5.436;2023-04-03T11:23:21;102968.06;;;13.06;29.06
74045;BME280;62389;51.412;5.436;2023-04-03T11:25:53;102962.38;;;12.83;28.36
74045;BME280;62389;51.412;5.436;2023-04-03T11:28:19;102961.66;;;12.76;28.92
74045;BME280;62389;51.412;5.436;2023-04-03T11:31:04;102959.84;;;12.78;29.47
74045;BME280;62389;51.412;5.436;2023-04-03T11:36:24;102957.88;;;12.89;31.02
74045;BME280;62389;51.412;5.436;2023-04-03T11:38:57;102955.16;;;12.95;33.67
74045;BME280;62389;51.412;5.436;2023-04-03T11:41:28;102936.06;;;12.86;28.50
74045;BME280;62389;51.412;5.436;2023-04-03T11:44:04;102953.00;;;12.71;29.56
74045;BME280;62389;51.412;5.436;2023-04-03T11:46:52;102945.94;;;12.73;30.68
74045;BME280;62389;51.412;5.436;2023-04-03T11:49:53;102931.22;;;12.66;30.21
74045;BME280;62389;51.412;5.436;2023-04-03T12:05:52;102929.16;;;12.82;28.81
74045;BME280;62389;51.412;5.436;2023-04-03T12:08:27;102927.41;;;12.81;28.00
74045;BME280;62389;51.412;5.436;2023-04-03T12:13:34;102919.38;;;12.88;27.08
74045;BME280;62389;51.412;5.436;2023-04-03T12:16:00;102921.22;;;12.83;29.42
74045;BME280;62389;51.412;5.436;2023-04-03T12:18:55;102901.03;;;12.87;30.71
74045;BME280;62389;51.412;5.436;2023-04-03T12:21:23;102911.53;;;12.87;27.59
74045;BME280;62389;51.412;5.436;2023-04-03T12:26:48;102917.91;;;12.74;28.10
74045;BME280;62389;51.412;5.436;2023-04-03T12:32:26;102910.25;;;12.63;31.14
74045;BME280;62389;51.412;5.436;2023-04-03T12:40:43;102916.09;;;12.77;27.99
74045;BME280;62389;51.412;5.436;2023-04-03T12:46:17;102900.47;;;12.71;28.26
74045;BME280;62389;51.412;5.436;2023-04-03T12:51:13;102885.53;;;12.73;27.30
74045;BME280;62389;51.412;5.436;2023-04-03T12:53:39;102882.09;;;12.71;27.55
74045;BME280;62389;51.412;5.436;2023-04-03T12:58:49;102873.53;;;12.61;27.01
74045;BME280;62389;51.412;5.436;2023-04-03T13:01:21;102871.81;;;12.60;28.88
74045;BME280;62389;51.412;5.436;2023-04-03T13:03:52;102865.66;;;12.60;28.42
74045;BME280;62389;51.412;5.436;2023-04-03T13:06:24;102866.56;;;12.60;28.13
74045;BME280;62389;51.412;5.436;2023-04-03T13:08:57;102871.13;;;12.51;28.78
74045;BME280;62389;51.412;5.436;2023-04-03T13:11:26;102868.50;;;12.49;29.51
74045;BME280;62389;51.412;5.436;2023-04-03T13:13:58;102863.22;;;12.52;30.12
74045;BME280;62389;51.412;5.436;2023-04-03T13:16:23;102853.41;;;12.62;27.54
74045;BME280;62389;51.412;5.436;2023-04-03T13:18:52;102851.59;;;12.65;28.44
74045;BME280;62389;51.412;5.436;2023-04-03T13:21:21;102865.63;;;12.63;30.38
74045;BME280;62389;51.412;5.436;2023-04-03T13:23:50;102858.69;;;12.59;28.24
74045;BME280;62389;51.412;5.436;2023-04-03T13:26:18;102852.66;;;12.55;28.84
74045;BME280;62389;51.412;5.436;2023-04-03T13:28:46;102854.44;;;12.53;29.49
74045;BME280;62389;51.412;5.436;2023-04-03T13:33:43;102847.72;;;12.40;30.09
74045;BME280;62389;51.412;5.436;2023-04-03T13:36:24;102833.78;;;12.36;30.40
74045;BME280;62389;51.412;5.436;2023-04-03T13:38:59;102854.13;;;12.25;27.93
74045;BME280;62389;51.412;5.436;2023-04-03T13:41:29;102840.25;;;12.17;29.91
74045;BME280;62389;51.412;5.436;2023-04-03T13:43:55;102843.78;;;12.16;29.99
74045;BME280;62389;51.412;5.436;2023-04-03T13:46:24;102842.16;;;12.09;32.68
74045;BME280;62389;51.412;5.436;2023-04-03T13:48:53;102850.06;;;12.07;30.12
74045;BME280;62389;51.412;5.436;2023-04-03T13:51:23;102841.44;;;12.01;30.59
74045;BME280;62389;51.412;5.436;2023-04-03T13:56:34;102840.47;;;12.06;32.88
74045;BME280;62389;51.412;5.436;2023-04-03T13:59:22;102825.66;;;12.02;31.24
74045;BME280;62389;51.412;5.436;2023-04-03T14:01:51;102837.13;;;11.97;33.31
74045;BME280;62389;51.412;5.436;2023-04-03T14:04:24;102835.38;;;11.97;30.12
74045;BME280;62389;51.412;5.436;2023-04-03T14:06:50;102838.81;;;12.01;31.76
74045;BME280;62389;51.412;5.436;2023-04-03T14:09:18;102821.31;;;12.01;33.32
74045;BME280;62389;51.412;5.436;2023-04-03T14:11:46;102832.56;;;12.08;31.33
74045;BME280;62389;51.412;5.436;2023-04-03T14:14:15;102829.94;;;12.08;32.85
74045;BME280;62389;51.412;5.436;2023-04-03T14:16:44;102828.16;;;12.10;34.59
74045;BME280;62389;51.412;5.436;2023-04-03T14:19:21;102829.06;;;12.07;33.98
74045;BME280;62389;51.412;5.436;2023-04-03T14:21:47;102819.44;;;12.08;33.06
74045;BME280;62389;51.412;5.436;2023-04-03T14:24:13;102822.91;;;12.10;32.19
74045;BME280;62389;51.412;5.436;2023-04-03T14:26:38;102823.88;;;12.06;32.52
74045;BME280;62389;51.412;5.436;2023-04-03T14:29:04;102800.41;;;11.97;32.16
74045;BME280;62389;51.412;5.436;2023-04-03T14:31:30;102816.19;;;11.95;33.64
74045;BME280;62389;51.412;5.436;2023-04-03T14:33:55;102807.41;;;11.98;33.74
74045;BME280;62389;51.412;5.436;2023-04-03T14:36:23;102809.22;;;11.92;32.87